Time;durP1;ratioP1;P1;durP2;ratioP2;P2;SDS_P1;SDS_P2;PMS_P1;PMS_P2;Temp;Humidity;BMP_temperature;BMP_pressure;BME280_temperature;BME280_humidity;BME280_pressure;Samples;Min_cycle;Max_cycle;Signal;HPM_P1;HPM_P2
2023/05/02 00:01:15;;;;;;;17.98;14.23;;;;;;;11.21;100.00;101909.22;5006084;28;20671;-59
2023/05/02 00:03:41;;;;;;;19.35;14.88;;;;;;;11.22;100.00;101905.41;4991475;28;20029;-59
2023/05/02 00:06:06;;;;;;;18.17;14.30;;;;;;;11.19;100.00;101917.66;5010827;28;20602;-59
2023/05/02 00:08:32;;;;;;;18.23;14.25;;;;;;;11.17;100.00;101917.88;5012753;28;20038;-58
2023/05/02 00:10:57;;;;;;;18.20;15.00;;;;;;;11.12;100.00;101917.66;5031032;28;20526;-59
2023/05/02 00:13:22;;;;;;;17.95;15.27;;;;;;;11.09;100.00;101925.44;5028440;28;20369;-58
2023/05/02 00:15:48;;;;;;;17.70;15.75;;;;;;;11.08;100.00;101934.75;5028833;28;20022;-58
2023/05/02 00:18:13;;;;;;;17.80;14.70;;;;;;;11.07;100.00;101931.16;5024924;28;20025;-58
2023/05/02 00:20:40;;;;;;;16.55;13.15;;;;;;;11.00;100.00;101930.31;5013136;28;20037;-59
2023/05/02 00:23:05;;;;;;;16.52;13.55;;;;;;;10.92;100.00;101933.25;5004868;28;20084;-60
2023/05/02 00:25:30;;;;;;;17.10;13.05;;;;;;;10.91;100.00;101934.31;5019476;28;20029;-60
2023/05/02 00:27:56;;;;;;;15.35;12.95;;;;;;;10.88;100.00;101932.78;5015079;28;20029;-57
2023/05/02 00:30:21;;;;;;;18.15;13.88;;;;;;;10.87;100.00;101931.09;5028679;28;20133;-58
2023/05/02 00:32:46;;;;;;;17.20;15.23;;;;;;;10.84;100.00;101931.50;5027909;28;20029;-59
2023/05/02 00:35:12;;;;;;;17.58;14.82;;;;;;;10.84;100.00;101936.16;5030296;28;20040;-57
2023/05/02 00:37:37;;;;;;;17.23;15.40;;;;;;;10.78;100.00;101932.34;5018095;28;20098;-59
2023/05/02 00:40:04;;;;;;;16.98;14.05;;;;;;;10.80;100.00;101941.25;5018301;28;20041;-59
2023/05/02 00:42:30;;;;;;;14.63;12.38;;;;;;;10.74;100.00;101946.69;5028477;28;20096;-59
2023/05/02 00:44:56;;;;;;;15.60;11.48;;;;;;;10.64;100.00;101944.31;5012310;28;20030;-58
2023/05/02 00:47:21;;;;;;;13.60;11.43;;;;;;;10.61;100.00;101944.75;5010379;28;20034;-58
2023/05/02 00:49:48;;;;;;;13.45;10.88;;;;;;;10.54;100.00;101946.59;5014832;28;20079;-58
2023/05/02 00:52:14;;;;;;;12.90;10.40;;;;;;;10.50;100.00;101943.44;5020029;28;20025;-59
2023/05/02 00:54:39;;;;;;;13.43;10.30;;;;;;;10.46;100.00;101944.03;5024948;28;20478;-58
2023/05/02 00:57:05;;;;;;;13.15;10.75;;;;;;;10.46;100.00;101944.88;5019621;28;20045;-58
2023/05/02 00:59:31;;;;;;;13.20;11.32;;;;;;;10.45;100.00;101943.19;5012539;28;20471;-59
2023/05/02 01:02:19;;;;;;;14.48;11.57;;;;;;;10.45;100.00;101947.84;5012808;28;20077;-59
2023/05/02 01:05:26;;;;;;;14.63;11.48;;;;;;;10.47;100.00;101952.06;5017879;28;20384;-58
2023/05/02 01:07:58;;;;;;;15.32;12.25;;;;;;;10.45;100.00;101948.69;5015154;28;20510;-59
2023/05/02 01:10:33;;;;;;;16.08;12.68;;;;;;;10.47;100.00;101963.03;5013081;28;20041;-59
2023/05/02 01:13:08;;;;;;;13.85;11.38;;;;;;;10.41;100.00;101958.38;5018841;28;20075;-59
2023/05/02 01:15:37;;;;;;;11.95;10.02;;;;;;;10.45;100.00;101951.44;5017890;28;20038;-58
2023/05/02 01:18:05;;;;;;;12.88;9.82;;;;;;;10.37;100.00;101946.94;5004005;28;20603;-58
2023/05/02 01:20:35;;;;;;;12.57;9.90;;;;;;;10.37;100.00;101941.44;5021685;28;20032;-59
2023/05/02 01:23:08;;;;;;;10.95;8.73;;;;;;;10.35;100.00;101937.22;5027922;28;20590;-58
2023/05/02 01:25:55;;;;;;;11.13;8.98;;;;;;;10.54;100.00;101943.84;5026973;28;21051;-59
2023/05/02 01:28:35;;;;;;;11.27;9.32;;;;;;;10.38;100.00;101942.28;5018310;28;20038;-59
2023/05/02 01:31:03;;;;;;;11.60;9.35;;;;;;;10.36;100.00;101947.16;5021365;28;20111;-58
2023/05/02 01:33:30;;;;;;;12.10;10.57;;;;;;;10.35;100.00;101959.19;5024641;28;20043;-58
2023/05/02 01:35:56;;;;;;;13.40;10.70;;;;;;;10.34;100.00;101961.09;5013880;28;20048;-58
2023/05/02 01:38:24;;;;;;;14.07;11.38;;;;;;;10.36;100.00;101956.22;5022546;28;20052;-58
2023/05/02 01:40:51;;;;;;;12.40;10.57;;;;;;;10.39;100.00;101958.59;5019038;28;20041;-58
2023/05/02 01:43:19;;;;;;;12.77;11.43;;;;;;;10.41;100.00;101958.38;5028805;28;20056;-58
2023/05/02 01:45:47;;;;;;;14.20;11.02;;;;;;;10.41;100.00;101957.53;5014314;28;20036;-58
2023/05/02 01:48:14;;;;;;;13.10;11.55;;;;;;;10.38;100.00;101967.84;5028319;28;20482;-59
2023/05/02 01:50:42;;;;;;;12.98;11.52;;;;;;;10.41;100.00;101965.75;5012927;28;20030;-58
2023/05/02 01:53:12;;;;;;;14.10;11.77;;;;;;;10.38;100.00;101969.75;5008009;28;20039;-59
2023/05/02 01:55:39;;;;;;;15.60;12.50;;;;;;;10.37;100.00;101970.81;5012343;28;20372;-59
2023/05/02 01:58:06;;;;;;;14.63;12.80;;;;;;;10.39;100.00;101976.94;5023877;28;20120;-58
2023/05/02 02:00:32;;;;;;;13.63;11.95;;;;;;;10.41;100.00;101979.50;5027858;28;20353;-58
2023/05/02 02:02:58;;;;;;;14.98;12.27;;;;;;;10.37;100.00;101985.38;5027823;28;20036;-60
2023/05/02 02:05:25;;;;;;;13.95;12.02;;;;;;;10.39;100.00;101980.56;5015761;28;20026;-58
2023/05/02 02:07:51;;;;;;;15.73;13.02;;;;;;;10.41;100.00;101976.75;5012909;28;20040;-58
2023/05/02 02:10:17;;;;;;;15.15;12.65;;;;;;;10.39;100.00;101980.56;5028006;28;20029;-58
2023/05/02 02:12:47;;;;;;;14.68;13.13;;;;;;;10.42;100.00;101986.69;5026543;28;20029;-59
2023/05/02 02:15:20;;;;;;;15.20;12.63;;;;;;;10.49;100.00;101988.44;5015788;28;20033;-59
2023/05/02 02:17:54;;;;;;;15.38;12.65;;;;;;;10.46;100.00;101988.81;5016427;28;20029;-58
2023/05/02 02:20:20;;;;;;;15.40;13.80;;;;;;;10.44;100.00;101990.06;5008544;28;20022;-59
2023/05/02 02:22:47;;;;;;;16.73;13.35;;;;;;;10.44;100.00;101987.31;5016444;28;20053;-58
2023/05/02 02:25:15;;;;;;;15.43;13.15;;;;;;;10.45;100.00;102002.78;5014136;28;20483;-58
2023/05/02 02:27:42;;;;;;;15.63;13.30;;;;;;;10.41;100.00;101991.31;5026290;28;20084;-59
2023/05/02 02:30:09;;;;;;;16.30;12.98;;;;;;;10.39;100.00;102005.28;5027270;28;20044;-59
2023/05/02 02:32:34;;;;;;;15.73;13.88;;;;;;;10.34;100.00;102001.41;5009663;28;20041;-59
2023/05/02 02:35:01;;;;;;;14.95;12.77;;;;;;;10.34;100.00;101999.53;5004369;28;20065;-57
2023/05/02 02:37:34;;;;;;;14.87;12.90;;;;;;;10.35;100.00;102003.13;5019161;28;20029;-59
2023/05/02 02:40:15;;;;;;;15.60;13.57;;;;;;;10.38;100.00;102002.69;5010832;28;20336;-58
2023/05/02 02:42:49;;;;;;;15.98;13.02;;;;;;;10.37;100.00;102003.75;4988457;28;20095;-59
2023/05/02 02:45:32;;;;;;;15.65;13.00;;;;;;;10.38;100.00;102003.53;4997900;28;20076;-59
2023/05/02 02:48:09;;;;;;;15.07;13.48;;;;;;;10.36;100.00;102008.41;5020979;28;20038;-58
2023/05/02 02:50:52;;;;;;;14.63;12.98;;;;;;;10.41;100.00;102004.22;5007436;28;20022;-58
2023/05/02 02:53:24;;;;;;;14.18;12.75;;;;;;;10.40;100.00;102006.13;5018996;28;20555;-58
2023/05/02 02:55:56;;;;;;;14.52;12.63;;;;;;;10.40;100.00;102008.88;5010285;28;20037;-59
2023/05/02 02:58:42;;;;;;;15.00;13.15;;;;;;;10.44;100.00;102009.28;5026382;28;20044;-59
2023/05/02 03:01:13;;;;;;;13.38;11.45;;;;;;;10.40;100.00;102014.34;5025793;28;20060;-59
2023/05/02 03:03:41;;;;;;;15.55;12.50;;;;;;;10.42;100.00;102022.38;5017023;28;20546;-58
2023/05/02 03:06:07;;;;;;;16.05;13.05;;;;;;;10.41;100.00;102021.53;5000660;28;20095;-59
2023/05/02 03:08:40;;;;;;;16.40;12.80;;;;;;;10.39;100.00;102026.38;5018763;28;20025;-58
2023/05/02 03:11:05;;;;;;;16.10;13.57;;;;;;;10.40;100.00;102033.56;5024592;28;20037;-59
2023/05/02 03:13:31;;;;;;;15.60;12.70;;;;;;;10.39;100.00;102030.00;5026196;28;20132;-59
2023/05/02 03:16:17;;;;;;;14.43;11.98;;;;;;;10.39;100.00;102040.97;5003721;28;20033;-59
2023/05/02 03:18:42;;;;;;;14.57;12.77;;;;;;;10.37;100.00;102043.06;5002157;28;20107;-58
2023/05/02 03:21:08;;;;;;;14.15;12.43;;;;;;;10.38;100.00;102038.41;5007371;28;20080;-59
2023/05/02 03:23:33;;;;;;;15.60;12.60;;;;;;;10.37;100.00;102040.31;5007939;28;20053;-59
2023/05/02 03:25:58;;;;;;;13.55;11.45;;;;;;;10.40;100.00;102047.31;5016409;28;20060;-58
2023/05/02 03:28:23;;;;;;;13.38;10.05;;;;;;;10.37;100.00;102053.19;4999722;28;20022;-59
2023/05/02 03:30:49;;;;;;;10.80;7.07;;;;;;;10.31;100.00;102052.09;4997266;28;20018;-59
2023/05/02 03:33:14;;;;;;;10.48;6.60;;;;;;;10.25;100.00;102063.03;5005250;28;20076;-59
2023/05/02 03:35:41;;;;;;;10.10;6.15;;;;;;;10.25;100.00;102058.41;5006577;28;20026;-59
2023/05/02 03:38:06;;;;;;;11.52;5.90;;;;;;;10.24;100.00;102069.56;5006877;28;20018;-57
2023/05/02 03:40:31;;;;;;;11.35;5.95;;;;;;;10.24;100.00;102075.03;5006901;28;20041;-59
2023/05/02 03:42:56;;;;;;;10.38;5.82;;;;;;;10.21;100.00;102068.03;5007099;28;20033;-59
2023/05/02 03:45:22;;;;;;;9.50;5.00;;;;;;;10.19;100.00;102072.00;5007734;28;20056;-58
2023/05/02 03:47:47;;;;;;;9.38;5.07;;;;;;;10.19;100.00;102070.13;5006235;28;20021;-59
2023/05/02 03:50:12;;;;;;;10.13;5.00;;;;;;;10.15;100.00;102068.84;5018321;28;20109;-59
2023/05/02 03:52:38;;;;;;;9.98;4.38;;;;;;;10.12;100.00;102074.72;5019446;28;20037;-58
2023/05/02 03:55:04;;;;;;;9.52;4.00;;;;;;;10.07;100.00;102077.19;5025388;28;20073;-59
2023/05/02 03:57:30;;;;;;;8.65;3.88;;;;;;;10.06;100.00;102081.00;5012354;28;20041;-58
2023/05/02 03:59:55;;;;;;;6.88;3.05;;;;;;;10.01;100.00;102084.31;5026390;28;20025;-58
2023/05/02 04:02:20;;;;;;;7.45;3.03;;;;;;;10.00;100.00;102090.03;5024655;28;20033;-59
2023/05/02 04:04:46;;;;;;;6.70;2.67;;;;;;;9.95;100.00;102090.59;5023865;28;20380;-58
2023/05/02 04:07:17;;;;;;;8.02;3.10;;;;;;;9.93;100.00;102100.06;5005513;28;20026;-58
2023/05/02 04:09:42;;;;;;;5.45;2.28;;;;;;;9.88;100.00;102103.38;5024726;28;20140;-59
2023/05/02 04:12:07;;;;;;;5.85;2.17;;;;;;;9.85;100.00;102112.03;5026389;28;20630;-58
2023/05/02 04:14:33;;;;;;;5.57;2.10;;;;;;;9.82;100.00;102107.78;5022570;28;20124;-59
2023/05/02 04:16:58;;;;;;;5.32;2.15;;;;;;;9.78;100.00;102109.22;5004832;28;20022;-58
2023/05/02 04:19:23;;;;;;;7.75;2.63;;;;;;;9.75;100.00;102109.59;5009613;28;20025;-58
2023/05/02 04:21:48;;;;;;;7.60;2.25;;;;;;;9.73;100.00;102117.19;5016647;28;20033;-58
2023/05/02 04:24:14;;;;;;;4.18;1.83;;;;;;;9.72;100.00;102122.84;5025304;28;20511;-59
2023/05/02 04:26:40;;;;;;;6.03;2.00;;;;;;;9.66;100.00;102129.13;5019843;28;20361;-57
2023/05/02 04:29:06;;;;;;;4.78;1.90;;;;;;;9.60;99.94;102133.50;5011394;28;20037;-58
2023/05/02 04:31:31;;;;;;;4.53;2.00;;;;;;;9.55;100.00;102135.97;5024331;28;20032;-58
2023/05/02 04:33:56;;;;;;;7.28;1.67;;;;;;;9.51;100.00;102140.97;5012648;28;20025;-58
2023/05/02 04:36:23;;;;;;;5.47;1.65;;;;;;;9.51;100.00;102148.34;5017415;28;20056;-58
2023/05/02 04:38:48;;;;;;;6.80;1.98;;;;;;;9.53;100.00;102146.25;5015943;28;20073;-58
2023/05/02 04:41:14;;;;;;;6.53;1.80;;;;;;;9.54;100.00;102153.47;5026731;28;20037;-59
2023/05/02 04:43:39;;;;;;;5.28;1.98;;;;;;;9.52;99.53;102161.00;5019925;28;20033;-59
2023/05/02 04:46:04;;;;;;;5.28;2.30;;;;;;;9.55;98.60;102160.66;5005678;28;20040;-58
2023/05/02 04:48:30;;;;;;;6.05;2.13;;;;;;;9.53;98.89;102159.97;5005514;28;20176;-59
2023/05/02 04:50:55;;;;;;;3.30;1.65;;;;;;;9.50;98.18;102165.84;5018968;28;20025;-58
2023/05/02 04:53:22;;;;;;;5.28;1.80;;;;;;;9.54;99.03;102167.19;5010799;28;20069;-59
2023/05/02 04:55:47;;;;;;;5.07;1.80;;;;;;;9.59;98.87;102175.69;5022575;28;20029;-58
2023/05/02 04:58:13;;;;;;;4.68;2.00;;;;;;;9.63;97.70;102182.50;5029860;28;20025;-60
2023/05/02 05:00:38;;;;;;;6.22;2.00;;;;;;;9.62;96.33;102178.88;5015074;28;20061;-59
2023/05/02 05:03:05;;;;;;;6.32;2.30;;;;;;;9.64;96.17;102184.19;5008303;28;20792;-59
2023/05/02 05:05:30;;;;;;;5.68;2.15;;;;;;;9.65;96.58;102188.63;5023227;28;20603;-59
2023/05/02 05:07:56;;;;;;;4.18;1.50;;;;;;;9.64;96.15;102192.41;5015164;28;20021;-59
2023/05/02 05:10:21;;;;;;;5.90;1.83;;;;;;;9.62;96.62;102189.84;5030113;28;20029;-60
2023/05/02 05:12:48;;;;;;;3.83;1.70;;;;;;;9.68;97.52;102192.84;5028906;28;20029;-59
2023/05/02 05:15:13;;;;;;;6.72;1.85;;;;;;;9.66;94.21;102194.97;5023628;28;20022;-59
2023/05/02 05:17:39;;;;;;;7.80;1.67;;;;;;;9.69;95.16;102200.06;5008258;28;20030;-58
2023/05/02 05:20:05;;;;;;;4.43;1.75;;;;;;;9.75;96.37;102208.38;5006550;28;20109;-59
2023/05/02 05:22:30;;;;;;;5.95;1.60;;;;;;;9.76;93.95;102204.59;5029364;28;20030;-58
2023/05/02 05:24:56;;;;;;;4.88;1.58;;;;;;;9.77;92.83;102209.03;5024888;28;20219;-59
2023/05/02 05:27:21;;;;;;;4.30;1.55;;;;;;;9.74;92.49;102208.56;5029086;28;20032;-55
2023/05/02 05:29:47;;;;;;;3.83;1.63;;;;;;;9.77;91.19;102208.19;5028798;28;20029;-59
2023/05/02 05:32:12;;;;;;;3.90;1.65;;;;;;;9.79;92.51;102222.56;5026227;28;20041;-59
2023/05/02 05:34:37;;;;;;;5.28;1.60;;;;;;;9.77;90.54;102225.47;5026459;28;20029;-58
2023/05/02 05:37:03;;;;;;;5.72;1.63;;;;;;;9.77;90.37;102224.63;5008281;28;20144;-58
2023/05/02 05:39:28;;;;;;;5.25;1.67;;;;;;;9.72;90.09;102221.63;5016942;28;20045;-58
2023/05/02 05:41:54;;;;;;;5.57;1.88;;;;;;;9.71;91.45;102223.50;5025140;28;20034;-57
2023/05/02 05:44:21;;;;;;;5.50;1.95;;;;;;;9.59;89.18;102245.09;5009532;28;20431;-59
2023/05/02 05:46:46;;;;;;;4.18;1.75;;;;;;;9.57;90.67;102249.06;5006510;28;20037;-58
2023/05/02 05:49:12;;;;;;;4.40;1.70;;;;;;;9.60;92.07;102237.72;5009117;28;20041;-59
2023/05/02 05:51:37;;;;;;;4.63;1.60;;;;;;;9.58;91.84;102237.91;5009268;28;20087;-58
2023/05/02 05:54:02;;;;;;;3.88;1.80;;;;;;;9.56;90.66;102242.72;5029065;28;20077;-58
2023/05/02 05:56:28;;;;;;;6.68;2.00;;;;;;;9.56;90.61;102242.72;5014444;28;20111;-58
2023/05/02 05:58:53;;;;;;;4.68;1.70;;;;;;;9.56;89.59;102248.22;5025996;28;20067;-59
2023/05/02 06:01:19;;;;;;;4.43;1.52;;;;;;;9.66;89.79;102253.41;5012137;28;20034;-58
2023/05/02 06:03:44;;;;;;;6.55;1.92;;;;;;;9.74;91.12;102260.72;5007851;28;20038;-57
2023/05/02 06:06:09;;;;;;;4.18;1.75;;;;;;;9.79;91.72;102261.84;5014235;28;20392;-59
2023/05/02 06:08:35;;;;;;;5.45;1.88;;;;;;;9.82;92.51;102266.91;5007329;28;20030;-58
2023/05/02 06:11:00;;;;;;;6.38;1.70;;;;;;;9.86;90.69;102272.88;5020255;28;20068;-59
2023/05/02 06:13:25;;;;;;;8.55;2.28;;;;;;;9.91;92.33;102280.53;5027757;28;20389;-59
2023/05/02 06:15:50;;;;;;;7.10;2.20;;;;;;;9.92;91.04;102276.75;4999424;28;20045;-58
2023/05/02 06:18:15;;;;;;;6.53;2.08;;;;;;;9.99;91.74;102272.22;4998986;28;20026;-57
2023/05/02 06:20:41;;;;;;;4.40;2.00;;;;;;;10.06;91.01;102284.13;4998552;28;20040;-58
2023/05/02 06:23:06;;;;;;;5.20;2.35;;;;;;;10.16;91.35;102278.31;4993813;28;20310;-58
2023/05/02 06:25:32;;;;;;;5.43;1.90;;;;;;;10.24;90.64;102290.09;4986808;28;20041;-56
2023/05/02 06:27:58;;;;;;;6.05;1.95;;;;;;;10.34;90.35;102296.13;5022890;28;20033;-58
2023/05/02 06:30:23;;;;;;;7.60;1.98;;;;;;;10.42;90.56;102303.38;5023403;28;20025;-58
2023/05/02 06:32:48;;;;;;;6.13;1.85;;;;;;;10.56;90.79;102307.13;5005763;28;20378;-56
2023/05/02 06:35:14;;;;;;;6.13;2.10;;;;;;;10.56;89.17;102309.88;5006398;28;20029;-59
2023/05/02 06:37:39;;;;;;;5.78;2.08;;;;;;;10.63;90.46;102319.88;5005000;28;20374;-58
2023/05/02 06:40:05;;;;;;;5.90;2.40;;;;;;;10.68;88.57;102316.53;5006520;28;20144;-59
2023/05/02 06:42:30;;;;;;;5.38;2.20;;;;;;;10.72;87.74;102320.59;5004809;28;20045;-57
2023/05/02 06:44:55;;;;;;;5.32;2.08;;;;;;;10.82;87.91;102323.03;5004214;28;20397;-59
2023/05/02 06:47:23;;;;;;;8.05;2.20;;;;;;;10.90;86.29;102329.25;5003468;28;20357;-58
2023/05/02 06:49:49;;;;;;;8.23;2.53;;;;;;;10.97;86.20;102328.47;5019261;28;20412;-58
2023/05/02 06:52:14;;;;;;;6.00;2.03;;;;;;;11.05;87.96;102339.31;5026729;28;20029;-58
2023/05/02 06:54:41;;;;;;;6.63;2.38;;;;;;;11.07;86.51;102340.81;5026636;28;20117;-57
2023/05/02 06:57:06;;;;;;;7.25;2.25;;;;;;;11.21;85.84;102336.31;5012704;28;20477;-58
2023/05/02 06:59:32;;;;;;;7.93;2.45;;;;;;;11.29;85.82;102335.28;5006585;28;20037;-57
2023/05/02 07:01:57;;;;;;;8.80;2.85;;;;;;;11.14;83.55;102338.13;5006431;28;20037;-58
2023/05/02 07:04:22;;;;;;;8.43;2.70;;;;;;;11.13;83.29;102348.28;5005841;28;20034;-56
2023/05/02 07:06:47;;;;;;;7.20;2.33;;;;;;;11.13;81.85;102341.94;5004382;28;20113;-59
2023/05/02 07:09:13;;;;;;;6.50;2.20;;;;;;;11.22;83.47;102346.25;5006798;28;20044;-58
2023/05/02 07:11:38;;;;;;;11.95;3.08;;;;;;;11.25;81.79;102350.47;5015010;28;20030;-59
2023/05/02 07:14:03;;;;;;;9.57;3.17;;;;;;;11.18;80.78;102358.69;5024813;28;20135;-58
2023/05/02 07:16:29;;;;;;;9.48;2.67;;;;;;;11.23;82.37;102361.69;5014510;28;20365;-58
2023/05/02 07:18:54;;;;;;;10.77;2.63;;;;;;;11.37;82.18;102363.50;5003462;28;20022;-58
2023/05/02 07:21:19;;;;;;;12.10;3.08;;;;;;;11.48;79.93;102364.03;5005028;28;20045;-58
2023/05/02 07:23:45;;;;;;;7.07;2.67;;;;;;;11.59;79.08;102372.56;4993743;28;20030;-58
2023/05/02 07:26:10;;;;;;;6.57;2.40;;;;;;;11.91;80.53;102367.50;5000482;28;20096;-57
2023/05/02 07:28:36;;;;;;;9.35;2.88;;;;;;;11.94;79.39;102372.63;5002752;28;20346;-57
2023/05/02 07:31:01;;;;;;;7.90;2.67;;;;;;;11.84;79.58;102373.00;4999210;28;20370;-58
2023/05/02 07:33:26;;;;;;;7.47;2.78;;;;;;;11.63;79.87;102373.03;5006805;28;20025;-58
2023/05/02 07:35:51;;;;;;;9.48;3.22;;;;;;;11.22;79.60;102389.41;5010359;28;20030;-58
2023/05/02 07:38:17;;;;;;;10.75;3.38;;;;;;;10.99;80.32;102395.09;5005597;28;20052;-58
2023/05/02 07:40:42;;;;;;;10.25;2.65;;;;;;;10.72;78.76;102391.22;5000343;28;20493;-60
2023/05/02 07:43:08;;;;;;;7.68;2.95;;;;;;;10.54;80.01;102408.09;5004816;28;20038;-58
2023/05/02 07:45:34;;;;;;;6.93;2.60;;;;;;;10.58;80.06;102409.41;5005847;28;20034;-57
2023/05/02 07:47:59;;;;;;;6.40;2.67;;;;;;;10.61;79.69;102414.53;4999047;28;20651;-58
2023/05/02 07:50:26;;;;;;;6.45;2.47;;;;;;;10.65;77.54;102413.97;5007974;28;20026;-58
2023/05/02 07:52:51;;;;;;;6.55;2.40;;;;;;;10.75;78.16;102421.91;5002372;28;20041;-58
2023/05/02 07:55:17;;;;;;;6.53;2.40;;;;;;;10.88;78.29;102418.44;5005491;28;20037;-58
2023/05/02 07:57:42;;;;;;;7.63;2.63;;;;;;;10.90;74.87;102410.88;5009137;28;20080;-58
2023/05/02 08:00:08;;;;;;;6.63;2.53;;;;;;;10.86;76.05;102413.16;5005994;28;20036;-58
2023/05/02 08:02:35;;;;;;;7.82;3.13;;;;;;;10.96;73.70;102417.50;5006590;28;20034;-58
2023/05/02 08:05:01;;;;;;;7.97;2.70;;;;;;;10.98;78.22;102412.63;4999543;28;20584;-59
2023/05/02 08:07:26;;;;;;;7.30;2.25;;;;;;;11.12;76.16;102420.81;5004627;28;20030;-58
2023/05/02 08:09:52;;;;;;;7.10;2.40;;;;;;;11.28;74.97;102422.47;5007276;28;20069;-58
2023/05/02 08:12:17;;;;;;;7.70;2.95;;;;;;;11.48;71.96;102419.06;5005901;28;20026;-59
2023/05/02 08:14:42;;;;;;;9.57;2.67;;;;;;;11.59;74.32;102433.09;4999956;28;20484;-59
2023/05/02 08:17:08;;;;;;;6.32;2.17;;;;;;;11.86;73.57;102416.81;5003387;28;20495;-58
2023/05/02 08:19:34;;;;;;;8.23;2.35;;;;;;;11.95;70.02;102424.72;5003885;28;20084;-58
2023/05/02 08:21:59;;;;;;;5.68;2.05;;;;;;;11.98;71.05;102433.66;5002072;28;20029;-59
2023/05/02 08:24:24;;;;;;;7.43;2.40;;;;;;;12.02;71.25;102435.81;5006966;28;20112;-59
2023/05/02 08:26:50;;;;;;;3.83;1.90;;;;;;;12.19;70.13;102433.59;5005962;28;20389;-56
2023/05/02 08:29:15;;;;;;;4.60;1.80;;;;;;;12.41;67.59;102431.56;4995116;28;20041;-59
2023/05/02 08:31:41;;;;;;;6.70;1.80;;;;;;;12.64;68.98;102434.88;5007668;28;20037;-59
2023/05/02 08:34:06;;;;;;;5.95;2.35;;;;;;;12.80;66.96;102446.59;5009995;28;20049;-59
2023/05/02 08:36:31;;;;;;;6.60;2.03;;;;;;;12.84;65.01;102436.88;5006125;28;20048;-58
2023/05/02 08:38:56;;;;;;;6.97;1.88;;;;;;;12.98;64.68;102435.84;5013537;28;20413;-59
2023/05/02 08:41:22;;;;;;;4.30;1.92;;;;;;;13.07;64.54;102445.63;5008011;28;20022;-58
2023/05/02 08:43:48;;;;;;;6.95;2.00;;;;;;;13.23;65.81;102452.72;5006121;28;20085;-57
2023/05/02 08:46:14;;;;;;;5.20;1.83;;;;;;;13.41;62.93;102446.56;5007240;28;20464;-58
2023/05/02 08:48:42;;;;;;;5.53;2.13;;;;;;;13.76;63.22;102450.00;5007248;28;20083;-57
2023/05/02 08:51:09;;;;;;;7.47;2.40;;;;;;;13.86;62.00;102455.94;5012514;28;20041;-56
2023/05/02 08:53:35;;;;;;;6.85;2.22;;;;;;;13.86;60.69;102458.69;5002631;28;20034;-58
2023/05/02 08:56:01;;;;;;;5.78;1.90;;;;;;;14.00;60.30;102451.25;5006624;28;20112;-58
2023/05/02 08:58:27;;;;;;;7.10;1.83;;;;;;;13.95;58.43;102465.69;4998281;28;20037;-58
2023/05/02 09:00:55;;;;;;;5.63;2.05;;;;;;;13.84;59.73;102466.34;4998053;28;20037;-57
2023/05/02 09:03:33;;;;;;;6.00;1.92;;;;;;;13.37;61.19;102459.94;5008800;28;20511;-57
2023/05/02 09:06:11;;;;;;;;;;;;;;;13.18;62.38;102472.63;4998310;28;20128;-58
2023/05/02 09:08:37;;;;;;;6.32;2.35;;;;;;;12.74;63.62;102478.59;4995418;28;19972;-59
2023/05/02 09:11:03;;;;;;;6.97;2.17;;;;;;;12.80;64.82;102490.72;5005328;28;20076;-58
2023/05/02 09:13:33;;;;;;;6.63;2.10;;;;;;;13.16;65.44;102490.41;5003610;28;20025;-58
2023/05/02 09:16:04;;;;;;;6.85;2.00;;;;;;;13.45;62.46;102492.88;5001304;28;20037;-57
2023/05/02 09:18:34;;;;;;;5.53;2.30;;;;;;;13.90;61.70;102490.34;5005889;28;20026;-58
2023/05/02 09:21:05;;;;;;;7.05;2.45;;;;;;;14.05;60.68;102498.44;5002163;28;20034;-58
2023/05/02 09:23:46;;;;;;;6.60;2.42;;;;;;;13.90;60.97;102500.56;5008033;28;20034;-57
2023/05/02 09:26:14;;;;;;;6.18;2.20;;;;;;;13.45;60.30;102508.56;5008086;28;20112;-57
2023/05/02 09:28:45;;;;;;;7.15;2.30;;;;;;;13.19;62.37;102503.81;5001520;28;20033;-58
2023/05/02 09:31:16;;;;;;;8.43;2.33;;;;;;;13.14;64.67;102522.91;5007752;28;20029;-58
2023/05/02 09:33:42;;;;;;;6.93;2.58;;;;;;;13.03;65.14;102509.66;5004608;28;20382;-58
2023/05/02 09:36:09;;;;;;;5.97;2.47;;;;;;;13.06;65.37;102515.63;5005304;28;20026;-58
2023/05/02 09:38:35;;;;;;;7.60;2.63;;;;;;;13.22;64.99;102511.69;5004559;28;20041;-58
2023/05/02 09:41:02;;;;;;;8.00;2.35;;;;;;;13.54;60.61;102506.47;5007247;28;20042;-58
2023/05/02 09:43:28;;;;;;;5.72;2.30;;;;;;;13.50;63.44;102519.84;5006644;28;20026;-58
2023/05/02 09:46:00;;;;;;;7.47;2.58;;;;;;;13.30;62.50;102517.03;5007215;28;20382;-58
2023/05/02 09:48:27;;;;;;;5.07;2.10;;;;;;;15.32;60.74;102528.25;5021122;28;20109;-56
2023/05/02 09:50:53;;;;;;;5.50;1.98;;;;;;;18.27;47.00;102513.34;5003464;28;20037;-58
2023/05/02 09:53:18;;;;;;;9.88;2.75;;;;;;;18.68;47.11;102528.25;5008201;28;20033;-59
2023/05/02 09:55:44;;;;;;;5.75;2.38;;;;;;;18.31;48.53;102531.25;5004521;28;20033;-58
2023/05/02 09:58:22;;;;;;;7.40;2.38;;;;;;;17.57;50.58;102535.44;5005223;28;20036;-58
2023/05/02 10:00:50;;;;;;;5.75;1.85;;;;;;;16.15;52.09;102537.50;5007462;28;20054;-59
2023/05/02 10:03:16;;;;;;;6.85;2.08;;;;;;;15.14;54.26;102541.97;4998142;28;20033;-58
2023/05/02 10:05:44;;;;;;;5.85;1.90;;;;;;;14.53;54.88;102537.69;5006937;28;20484;-59
2023/05/02 10:08:11;;;;;;;4.65;1.88;;;;;;;14.12;53.93;102539.84;5001631;28;20034;-59
2023/05/02 10:10:38;;;;;;;6.00;2.28;;;;;;;14.24;56.53;102547.31;5008706;28;20025;-59
2023/05/02 10:13:04;;;;;;;4.65;2.03;;;;;;;14.65;56.07;102537.91;5008453;28;20030;-59
2023/05/02 10:15:31;;;;;;;5.95;2.05;;;;;;;14.76;54.69;102534.47;5006528;28;20025;-59
2023/05/02 10:18:07;;;;;;;4.40;1.90;;;;;;;14.91;54.59;102533.38;5007525;28;20461;-59
2023/05/02 10:20:38;;;;;;;6.40;1.95;;;;;;;15.40;55.43;102543.75;5009092;28;20014;-58
2023/05/02 10:23:04;;;;;;;7.43;2.05;;;;;;;15.11;54.56;102545.19;5007414;28;20546;-59
2023/05/02 10:25:32;;;;;;;4.93;2.08;;;;;;;14.73;55.64;102545.09;5011225;28;20037;-58
2023/05/02 10:27:58;;;;;;;7.10;2.20;;;;;;;14.84;56.60;102540.81;5011646;28;20026;-59
2023/05/02 10:30:24;;;;;;;7.05;2.40;;;;;;;16.82;47.68;102538.56;4997357;28;20029;-59
2023/05/02 10:32:52;;;;;;;5.20;2.20;;;;;;;16.07;48.62;102546.97;5013323;28;20021;-58
2023/05/02 10:35:18;;;;;;;5.00;1.98;;;;;;;15.80;52.83;102544.38;5024080;28;20104;-58
2023/05/02 10:37:44;;;;;;;5.88;2.30;;;;;;;15.19;49.58;102550.47;5008329;28;20026;-59
2023/05/02 10:40:11;;;;;;;5.80;2.10;;;;;;;14.71;50.63;102548.09;5016177;28;20064;-58
2023/05/02 10:42:39;;;;;;;5.35;2.00;;;;;;;14.46;55.31;102552.59;5025498;28;20676;-58
2023/05/02 10:45:11;;;;;;;5.25;1.90;;;;;;;14.50;55.10;102557.50;5024366;28;20025;-57
2023/05/02 10:47:36;;;;;;;4.72;2.00;;;;;;;15.13;54.59;102544.97;5026937;28;20495;-59
2023/05/02 10:50:03;;;;;;;6.03;1.98;;;;;;;16.83;47.59;102540.28;5008256;28;20026;-59
2023/05/02 10:52:32;;;;;;;3.77;2.00;;;;;;;17.10;46.13;102540.78;5007622;28;20030;-59
2023/05/02 10:55:17;;;;;;;5.57;2.20;;;;;;;16.93;48.82;102539.69;5006178;28;20692;-58
2023/05/02 10:57:57;;;;;;;4.18;2.00;;;;;;;16.98;46.28;102537.94;5008298;28;20489;-59
2023/05/02 11:00:30;;;;;;;5.50;2.05;;;;;;;16.98;43.36;102549.06;5007236;28;20425;-59
2023/05/02 11:02:56;;;;;;;6.40;2.10;;;;;;;16.32;48.62;102556.13;5019893;28;20104;-58
2023/05/02 11:05:23;;;;;;;4.80;2.00;;;;;;;15.73;48.30;102562.97;5007313;28;20029;-58
2023/05/02 11:07:48;;;;;;;4.40;2.00;;;;;;;15.68;49.41;102564.72;5006678;28;20028;-57
2023/05/02 11:10:14;;;;;;;5.95;2.20;;;;;;;15.84;47.76;102558.66;5005081;28;20109;-59
2023/05/02 11:12:56;;;;;;;5.57;2.10;;;;;;;15.80;49.67;102561.00;5007187;28;20108;-58
2023/05/02 11:15:27;;;;;;;4.00;2.08;;;;;;;15.44;51.46;102575.47;5006513;28;20507;-59
2023/05/02 11:18:11;;;;;;;5.72;2.28;;;;;;;15.33;51.95;102570.63;5002911;28;20022;-58
2023/05/02 11:20:39;;;;;;;5.70;1.90;;;;;;;15.38;54.21;102576.38;5004438;28;20026;-58